Details for EasyJet at EHAM




Go Back


Latest METAR
Local Time

EHAM 250455Z 09007KT 9999 FEW045 17/15 Q1017 NOSIG

25/05/2018, 07:02:09

Description
Results
EasyJet Logo
Number of Pilots based at EHAM
2 Pilots Based here
Number of EasyJet Flights Departed from EHAM
7 Flights Departed
Number of EasyJet Flights Arrived at EHAM
10 Flights Arrived
Number of EasyJet Schedules Departing from EHAM
223 Schedules
Number of EasyJet Schedules Arriving at EHAM
209 Schedules
Number of EasyJet Schedules Departing from EHAM availible today
98 Schedules Today
Number of EasyJet Schedules Arriving at EHAM availible today
95 Schedules Today
Average Landing Rate at EHAM
-211 fpm
EasyJet Average Landing Rate at EHAM
-264 fpm
Total Fuel Purchased at EHAM by EasyJet
10,355.81 kgs / 22,830.42 lbs

Pilots Based at EHAM


Pilot ID
Pilot Name
Pilot Rank
No. of Flights
No. of Flying Hours
Youri Rutten
83
197.1
James Hatcher
126
521.08
Content